Quaid, Louisiana
Current Conditions -  °F | °C
As of 5:53 AM on Friday 28 Nov 2014 (Local Time) from KESF Reporting Station
Clear Clear  
Wind Chill: 30°   Ceiling: Unl
Heat Index: 30°   Visibility: 10mi
Dew Point: 27°   Wind: 0mph
Humidity: 88%   Direction: NA
Pressure: 30.42"   Gusts: NA
Location:  31.5028°N, 91.9028°W
Report Text: KESF 281153Z AUTO 00000KT 10SM CLR M01/M03 A3042 RMK AO2 SLP300 I1000 I6000 T10111028 10017 21017 55000
Loading
Personal Weather Stations






























Interactive Weather Map New forecast layout! Learn more

10-Day Weather Forecast

Advertisements
Track Severe Weather on mobile